Time;durP1;ratioP1;P1;durP2;ratioP2;P2;SDS_P1;SDS_P2;PMS_P1;PMS_P2;Temp;Humidity;BMP_temperature;BMP_pressure;BME280_temperature;BME280_humidity;BME280_pressure;Samples;Min_cycle;Max_cycle;Signal;HPM_P1;HPM_P2
2024/03/11 00:00:17;;;;;;;76.90;68.63;;;8.30;99.90;10.20;95460.00;;;;4971406;28;20246;-64
2024/03/11 00:03:07;;;;;;;68.63;61.47;;;8.30;99.90;10.60;95458.00;;;;4966637;28;20207;-66
2024/03/11 00:05:56;;;;;;;69.67;62.73;;;8.30;99.90;10.80;95466.00;;;;4969117;28;20215;-67
2024/03/11 00:08:45;;;;;;;73.10;65.27;;;8.30;99.90;10.80;95453.00;;;;4975460;28;20251;-66
2024/03/11 00:11:35;;;;;;;70.87;63.50;;;8.30;99.90;10.90;95452.00;;;;4970394;28;20290;-65
2024/03/11 00:14:26;;;;;;;68.90;61.93;;;8.40;99.90;10.60;95458.00;;;;4969433;28;20211;-66
2024/03/11 00:17:17;;;;;;;75.00;66.90;;;8.40;99.90;10.60;95454.00;;;;4971082;28;20213;-65
2024/03/11 00:20:08;;;;;;;82.07;71.33;;;8.30;99.90;10.70;95465.00;;;;4968468;28;20616;-66
2024/03/11 00:22:57;;;;;;;49.97;46.07;;;8.30;99.90;10.40;95465.00;;;;4975627;28;20211;-65
2024/03/11 00:25:45;;;;;;;42.87;39.47;;;8.30;99.90;10.30;95474.00;;;;4968109;28;20602;-64
2024/03/11 00:28:36;;;;;;;38.00;34.87;;;8.30;99.90;10.30;95467.00;;;;4969116;28;20218;-65
2024/03/11 00:31:29;;;;;;;38.30;35.27;;;8.20;99.90;10.40;95472.00;;;;4971101;28;20199;-65
2024/03/11 00:34:20;;;;;;;29.03;26.87;;;8.20;99.90;10.60;95479.00;;;;4970629;28;20602;-66
2024/03/11 00:37:10;;;;;;;23.83;19.80;;;8.20;99.90;10.90;95482.00;;;;4966969;28;20207;-67
2024/03/11 00:39:59;;;;;;;19.97;18.10;;;8.30;99.90;11.10;95479.00;;;;4971803;28;20222;-65
2024/03/11 00:42:48;;;;;;;25.47;23.37;;;8.40;99.90;11.10;95483.00;;;;4968096;28;20207;-64
2024/03/11 00:45:37;;;;;;;21.80;19.90;;;8.40;99.90;11.20;95490.00;;;;4970446;28;20200;-64
2024/03/11 00:48:27;;;;;;;25.33;23.47;;;8.40;99.90;11.10;95495.00;;;;4972275;28;20203;-65
2024/03/11 00:51:17;;;;;;;28.67;25.83;;;8.40;99.90;11.10;95489.00;;;;4973761;28;20235;-65
2024/03/11 00:54:07;;;;;;;31.43;29.27;;;8.40;99.90;11.10;95484.00;;;;4971692;28;20207;-64
2024/03/11 00:56:58;;;;;;;24.73;23.10;;;8.30;99.90;10.60;95473.00;;;;4970243;28;20200;-65
2024/03/11 00:59:46;;;;;;;20.10;18.27;;;8.30;99.90;10.30;95469.00;;;;4973582;28;20727;-64
2024/03/11 01:02:35;;;;;;;24.67;22.70;;;8.20;99.90;10.10;95471.00;;;;4971782;28;20207;-66
2024/03/11 01:05:26;;;;;;;33.77;29.80;;;8.10;99.90;9.70;95460.00;;;;4971320;28;20203;-65
2024/03/11 01:08:16;;;;;;;23.20;14.87;;;8.00;99.90;9.90;95470.00;;;;4969907;28;20203;-65
2024/03/11 01:11:05;;;;;;;23.20;13.10;;;7.80;99.90;9.80;95472.00;;;;4969771;28;20691;-65
2024/03/11 01:13:55;;;;;;;13.00;8.37;;;7.80;99.90;10.40;95463.00;;;;4968674;28;20208;-67
2024/03/11 01:16:44;;;;;;;11.73;8.53;;;7.90;99.90;9.90;95469.00;;;;4981248;28;20220;-65
2024/03/11 01:19:33;;;;;;;12.00;8.20;;;7.80;99.90;9.60;95446.00;;;;4970195;28;20219;-66
2024/03/11 01:22:22;;;;;;;11.93;9.90;;;7.80;99.90;9.80;95440.00;;;;4973244;28;20209;-65
2024/03/11 01:25:12;;;;;;;15.53;10.27;;;7.80;99.90;10.40;95447.00;;;;4970647;28;20237;-66
2024/03/11 01:28:01;;;;;;;15.83;9.07;;;7.80;99.90;10.50;95453.00;;;;4968758;28;20705;-66
2024/03/11 01:30:50;;;;;;;11.73;7.90;;;7.80;99.90;10.20;95445.00;;;;4971159;28;20208;-65
2024/03/11 01:33:39;;;;;;;13.00;7.30;;;7.90;99.90;9.70;95445.00;;;;4971016;28;20203;-65
2024/03/11 01:36:34;;;;;;;4.67;4.10;;;7.80;99.90;9.40;95460.00;;;;4968574;28;20199;-65
2024/03/11 01:39:26;;;;;;;9.20;5.37;;;7.70;99.90;10.30;95461.00;;;;4973113;28;20717;-66
2024/03/11 01:42:17;;;;;;;15.70;7.90;;;7.80;99.90;10.10;95465.00;;;;4970434;28;20219;-66
2024/03/11 01:45:07;;;;;;;17.53;10.17;;;7.80;99.90;10.10;95469.00;;;;4968030;28;20227;-65
2024/03/11 01:47:56;;;;;;;9.23;7.57;;;7.70;99.90;10.30;95463.00;;;;4968474;28;20228;-65
2024/03/11 01:50:45;;;;;;;12.67;6.50;;;7.80;99.90;10.00;95451.00;;;;4997095;23;20246;-69
2024/03/11 01:53:35;;;;;;;14.07;7.27;;;7.80;99.90;10.40;95437.00;;;;4988108;28;20195;-70
2024/03/11 01:56:23;;;;;;;11.73;7.37;;;7.70;99.90;10.20;95436.00;;;;4989300;28;20206;-69
2024/03/11 01:59:14;;;;;;;17.77;8.83;;;7.70;99.90;9.80;95458.00;;;;4987207;28;20616;-70
2024/03/11 02:02:07;;;;;;;20.43;10.53;;;7.60;99.90;9.80;95436.00;;;;4984751;28;20213;-68
2024/03/11 02:04:56;;;;;;;9.50;5.73;;;7.60;99.90;9.60;95446.00;;;;4986018;28;20206;-70
2024/03/11 02:07:49;;;;;;;8.73;5.43;;;7.40;99.90;9.40;95467.00;;;;4982019;28;20242;-69
2024/03/11 02:10:37;;;;;;;25.93;12.23;;;7.40;99.90;9.90;95472.00;;;;4988645;28;20230;-69
2024/03/11 02:13:26;;;;;;;13.03;8.27;;;7.40;99.90;9.90;95475.00;;;;4989472;28;20217;-70
2024/03/11 02:16:17;;;;;;;16.00;10.30;;;7.40;99.90;10.00;95464.00;;;;4986112;28;20207;-68
2024/03/11 02:19:07;;;;;;;26.40;16.10;;;7.40;99.90;9.80;95467.00;;;;4985742;28;20241;-69
2024/03/11 02:21:56;;;;;;;15.07;10.00;;;7.30;99.90;9.70;95451.00;;;;4985475;28;20203;-69
2024/03/11 02:24:46;;;;;;;10.13;6.53;;;7.40;99.90;9.70;95463.00;;;;4990262;28;20242;-68
2024/03/11 02:27:35;;;;;;;14.17;7.47;;;7.30;99.90;9.50;95475.00;;;;4984762;28;20250;-68
2024/03/11 02:30:24;;;;;;;18.00;7.50;;;7.30;99.90;9.60;95463.00;;;;4988155;28;20774;-70
2024/03/11 02:33:13;;;;;;;12.97;6.00;;;7.20;99.90;9.70;95463.00;;;;4989220;28;20202;-69
2024/03/11 02:36:02;;;;;;;15.77;6.93;;;7.20;99.90;9.60;95445.00;;;;4983780;28;20211;-71
2024/03/11 02:38:51;;;;;;;17.10;7.63;;;7.30;99.90;9.50;95442.00;;;;4984536;28;20202;-69
2024/03/11 02:41:42;;;;;;;12.67;5.77;;;7.10;99.90;9.40;95439.00;;;;4985721;28;20199;-68
2024/03/11 02:44:32;;;;;;;10.80;6.00;;;7.10;99.90;9.10;95444.00;;;;4986411;28;20233;-68
2024/03/11 02:47:23;;;;;;;10.80;4.87;;;7.00;99.90;9.00;95449.00;;;;4984812;28;20223;-69
2024/03/11 02:50:13;;;;;;;22.43;9.37;;;6.90;99.90;9.10;95452.00;;;;4985325;28;20238;-70
2024/03/11 02:53:04;;;;;;;12.17;5.43;;;6.90;99.90;9.50;95459.00;;;;4985524;28;20227;-70
2024/03/11 02:55:53;;;;;;;8.90;5.87;;;6.90;99.90;9.50;95451.00;;;;4987304;28;20245;-70
2024/03/11 02:58:44;;;;;;;18.50;8.67;;;6.90;99.90;9.00;95445.00;;;;4987066;28;20588;-70
2024/03/11 03:01:32;;;;;;;12.63;7.23;;;6.80;99.90;8.80;95442.00;;;;4985592;28;20681;-70
2024/03/11 03:04:21;;;;;;;11.23;7.27;;;6.70;99.90;8.90;95431.00;;;;4988521;28;20207;-69
2024/03/11 03:07:13;;;;;;;19.90;7.70;;;6.60;99.90;8.90;95434.00;;;;4981157;28;20237;-69
2024/03/11 03:10:03;;;;;;;17.00;6.60;;;6.60;99.90;8.90;95430.00;;;;4984252;28;20225;-71
2024/03/11 03:12:52;;;;;;;12.13;5.43;;;6.60;99.90;8.80;95433.00;;;;4983795;28;20596;-70
2024/03/11 03:15:42;;;;;;;9.53;4.23;;;6.50;99.90;8.90;95441.00;;;;4985923;28;20217;-70
2024/03/11 03:18:31;;;;;;;11.53;4.70;;;6.40;99.90;8.60;95446.00;;;;4986743;28;20199;-70
2024/03/11 03:21:21;;;;;;;7.50;3.40;;;6.40;99.90;8.50;95464.00;;;;4987559;28;20211;-70
2024/03/11 03:24:10;;;;;;;14.93;5.53;;;6.30;99.90;8.50;95451.00;;;;4984809;28;20207;-69
2024/03/11 03:26:59;;;;;;;9.60;3.93;;;6.30;99.90;8.00;95454.00;;;;4986749;28;20209;-71
2024/03/11 03:29:48;;;;;;;9.53;4.10;;;6.20;99.90;8.20;95458.00;;;;4987406;28;20230;-70
2024/03/11 03:32:39;;;;;;;11.97;4.93;;;6.10;99.90;8.60;95463.00;;;;4985856;28;20289;-70
2024/03/11 03:35:28;;;;;;;20.73;7.60;;;6.20;99.90;8.40;95461.00;;;;4982862;28;20233;-71
2024/03/11 03:38:16;;;;;;;14.93;5.70;;;6.10;99.90;8.30;95458.00;;;;4987016;28;20276;-69
2024/03/11 03:41:05;;;;;;;10.50;4.23;;;6.10;99.90;8.30;95468.00;;;;4981137;28;20234;-69
2024/03/11 03:43:54;;;;;;;11.20;4.73;;;6.10;99.90;8.60;95476.00;;;;4981970;28;20210;-70
2024/03/11 03:46:43;;;;;;;11.87;5.07;;;6.10;99.90;8.80;95484.00;;;;4984139;28;20275;-69
2024/03/11 03:49:34;;;;;;;12.10;4.77;;;6.20;99.90;9.00;95491.00;;;;4982660;28;20239;-70
2024/03/11 03:52:22;;;;;;;11.97;4.90;;;6.30;99.90;8.60;95489.00;;;;4986118;28;20217;-72
2024/03/11 03:55:11;;;;;;;19.60;7.13;;;6.30;99.90;8.40;95479.00;;;;4987038;28;20218;-70
2024/03/11 03:58:00;;;;;;;9.00;3.93;;;6.30;99.90;8.20;95485.00;;;;4983691;28;20692;-71
2024/03/11 04:00:49;;;;;;;10.03;3.80;;;6.20;99.90;8.20;95497.00;;;;4987638;28;20214;-72
2024/03/11 04:03:38;;;;;;;8.63;3.37;;;6.20;99.90;8.80;95492.00;;;;4986466;28;20210;-72
2024/03/11 04:06:28;;;;;;;7.67;3.20;;;6.20;99.90;9.00;95498.00;;;;4985202;28;20191;-71
2024/03/11 04:09:17;;;;;;;19.97;7.20;;;6.20;99.90;9.10;95499.00;;;;4986576;28;20286;-72
2024/03/11 04:12:07;;;;;;;16.37;5.80;;;6.30;99.90;8.70;95497.00;;;;4985397;28;20206;-72
2024/03/11 04:14:56;;;;;;;11.13;4.17;;;6.30;99.90;8.30;95493.00;;;;4985001;28;20198;-70
2024/03/11 04:17:46;;;;;;;12.57;4.67;;;6.30;99.90;8.40;95496.00;;;;4985582;28;20576;-70
2024/03/11 04:20:35;;;;;;;27.57;8.77;;;6.20;99.90;8.40;95492.00;;;;4984445;28;20584;-71
2024/03/11 04:23:26;;;;;;;9.73;3.80;;;6.20;99.90;8.60;95501.00;;;;4981141;28;20711;-71
2024/03/11 04:26:15;;;;;;;18.10;6.43;;;6.20;99.90;8.80;95501.00;;;;4985201;28;20214;-70
2024/03/11 04:29:05;;;;;;;13.10;4.70;;;6.20;99.90;8.90;95497.00;;;;4981421;28;20242;-71
2024/03/11 04:31:56;;;;;;;12.83;4.73;;;6.10;99.90;8.70;95489.00;;;;4981710;28;20338;-70
2024/03/11 04:34:45;;;;;;;10.37;3.67;;;6.20;99.90;9.00;95495.00;;;;4988091;28;20700;-70
2024/03/11 04:37:34;;;;;;;12.50;4.53;;;6.30;99.90;9.20;95481.00;;;;4987054;28;20214;-71
2024/03/11 04:40:26;;;;;;;19.83;6.70;;;6.40;99.90;9.10;95471.00;;;;4983306;28;20234;-73
2024/03/11 04:43:16;;;;;;;17.07;5.87;;;6.40;99.90;8.80;95462.00;;;;4987712;28;20210;-71
2024/03/11 04:46:05;;;;;;;11.67;4.17;;;6.40;99.90;8.90;95464.00;;;;4988622;28;20868;-71
2024/03/11 04:48:54;;;;;;;13.73;4.87;;;6.30;99.90;8.70;95467.00;;;;4985695;28;20222;-71
2024/03/11 04:51:43;;;;;;;10.23;3.70;;;6.30;99.90;8.90;95460.00;;;;4990626;28;20214;-72
2024/03/11 04:54:33;;;;;;;9.20;3.60;;;6.30;99.90;8.90;95458.00;;;;4988510;28;20210;-71
2024/03/11 04:57:23;;;;;;;11.53;4.27;;;6.30;99.90;8.90;95451.00;;;;4986319;28;20226;-72
2024/03/11 05:00:13;;;;;;;14.60;5.33;;;6.30;99.90;8.80;95442.00;;;;4989169;28;20215;-71
2024/03/11 05:03:05;;;;;;;10.77;3.97;;;6.30;99.90;8.60;95452.00;;;;4986334;28;20213;-70
2024/03/11 05:05:54;;;;;;;8.57;3.23;;;6.30;99.90;8.40;95441.00;;;;4986015;28;20198;-71
2024/03/11 05:08:43;;;;;;;13.77;5.00;;;6.20;99.90;8.30;95442.00;;;;4988016;28;20611;-72
2024/03/11 05:11:32;;;;;;;11.70;4.40;;;6.10;99.90;8.60;95465.00;;;;4988617;28;20206;-70
2024/03/11 05:14:22;;;;;;;15.73;5.40;;;6.10;99.90;8.70;95454.00;;;;4986610;28;20214;-70
2024/03/11 05:17:12;;;;;;;15.67;5.33;;;6.10;99.90;8.60;95445.00;;;;4984366;28;20209;-71
2024/03/11 05:20:05;;;;;;;9.77;3.57;;;6.10;99.90;8.40;95440.00;;;;4982061;28;20229;-72
2024/03/11 05:22:54;;;;;;;10.13;3.90;;;6.00;99.90;8.40;95447.00;;;;4989339;28;20202;-71
2024/03/11 05:25:45;;;;;;;11.13;3.83;;;6.00;99.90;8.40;95458.00;;;;4985736;28;20855;-71
2024/03/11 05:28:34;;;;;;;13.20;4.60;;;6.00;99.90;8.10;95454.00;;;;4986547;28;20227;-71
2024/03/11 05:31:26;;;;;;;7.40;2.87;;;5.90;99.90;8.40;95462.00;;;;4984233;28;20214;-70
2024/03/11 05:34:15;;;;;;;17.20;5.73;;;5.90;99.90;8.30;95467.00;;;;4983168;28;20203;-71
2024/03/11 05:37:06;;;;;;;15.70;5.37;;;5.90;99.90;8.20;95470.00;;;;4983955;28;20217;-72
2024/03/11 05:39:57;;;;;;;12.07;4.27;;;5.90;99.90;8.20;95464.00;;;;4979561;28;20676;-70
2024/03/11 05:42:48;;;;;;;19.67;6.77;;;5.90;99.90;8.30;95465.00;;;;4978874;28;20214;-70
2024/03/11 05:45:37;;;;;;;16.37;5.63;;;5.90;99.90;8.10;95480.00;;;;4983298;28;20195;-71
2024/03/11 05:48:27;;;;;;;14.40;4.87;;;5.80;99.90;8.40;95494.00;;;;4977477;28;20227;-72
2024/03/11 05:51:17;;;;;;;18.27;6.30;;;5.90;99.90;8.50;95485.00;;;;4978889;28;20590;-70
2024/03/11 05:54:06;;;;;;;18.47;6.47;;;5.90;99.90;8.60;95500.00;;;;4976846;28;20215;-69
2024/03/11 05:56:56;;;;;;;12.33;4.37;;;6.20;99.90;8.80;95507.00;;;;4982023;28;20203;-71
2024/03/11 05:59:46;;;;;;;15.43;5.70;;;6.00;99.90;8.10;95492.00;;;;4982770;28;20221;-71
2024/03/11 06:02:34;;;;;;;13.07;4.67;;;6.00;99.90;7.80;95499.00;;;;4983062;28;20210;-70
2024/03/11 06:05:25;;;;;;;28.30;9.37;;;5.90;99.90;7.90;95511.00;;;;4978644;28;20710;-71
2024/03/11 06:08:14;;;;;;;21.77;7.23;;;5.80;99.90;7.80;95518.00;;;;4982467;28;20210;-71
2024/03/11 06:11:03;;;;;;;11.00;3.87;;;5.80;99.90;7.80;95519.00;;;;4981448;28;20237;-70
2024/03/11 06:13:51;;;;;;;12.57;4.33;;;5.70;99.90;8.30;95527.00;;;;4985374;28;20229;-70
2024/03/11 06:16:41;;;;;;;11.80;4.10;;;5.70;99.90;8.10;95535.00;;;;4983660;28;20599;-70
2024/03/11 06:19:30;;;;;;;102.00;39.60;;;5.80;99.90;7.90;95539.00;;;;4979998;28;20218;-71
2024/03/11 06:22:21;;;;;;;16.70;5.63;;;5.80;99.90;7.90;95543.00;;;;4975095;28;20843;-70
2024/03/11 06:25:11;;;;;;;20.50;6.93;;;5.70;99.90;7.70;95558.00;;;;4968399;28;20206;-73
2024/03/11 06:28:00;;;;;;;81.37;75.13;;;5.50;99.90;7.70;95547.00;;;;4980645;28;20446;-70
2024/03/11 06:30:49;;;;;;;14.03;6.20;;;5.70;99.90;7.80;95555.00;;;;4974132;28;20234;-72
2024/03/11 06:33:38;;;;;;;88.30;31.43;;;5.70;99.90;7.90;95580.00;;;;4973293;28;20203;-71
2024/03/11 06:36:27;;;;;;;10.17;3.87;;;5.70;99.90;8.10;95580.00;;;;4972371;28;20692;-71
2024/03/11 06:39:18;;;;;;;19.20;6.77;;;5.80;99.90;8.50;95589.00;;;;4971170;28;20218;-71
2024/03/11 06:42:08;;;;;;;23.57;8.17;;;5.90;99.90;8.70;95595.00;;;;4967802;28;20226;-71
2024/03/11 06:44:57;;;;;;;72.33;24.80;;;5.90;99.90;8.70;95603.00;;;;4974436;28;20203;-71
2024/03/11 06:47:46;;;;;;;12.07;4.97;;;6.00;99.90;9.10;95616.00;;;;4973525;28;20289;-70
2024/03/11 06:50:35;;;;;;;31.03;10.53;;;6.10;99.90;9.00;95618.00;;;;4978971;28;20737;-72
2024/03/11 06:53:24;;;;;;;11.43;4.37;;;6.20;99.90;9.20;95624.00;;;;4950194;28;20586;-72
2024/03/11 06:56:15;;;;;;;75.50;28.80;;;6.30;99.90;9.40;95623.00;;;;4953541;28;20241;-72
2024/03/11 06:59:04;;;;;;;8.27;3.47;;;6.50;99.90;9.40;95631.00;;;;4941183;28;20231;-74
2024/03/11 07:01:53;;;;;;;76.13;26.63;;;6.50;99.90;9.20;95626.00;;;;4953627;28;20203;-71
2024/03/11 07:04:42;;;;;;;71.20;24.17;;;6.60;99.90;9.00;95626.00;;;;4949272;28;20215;-71
2024/03/11 07:07:32;;;;;;;34.17;11.73;;;6.60;99.90;9.10;95624.00;;;;4960401;28;20202;-73
2024/03/11 07:10:21;;;;;;;92.80;38.10;;;6.50;99.90;9.50;95618.00;;;;4960918;28;20242;-71
2024/03/11 07:13:12;;;;;;;92.73;40.27;;;6.70;99.90;9.50;95620.00;;;;4949724;28;20210;-71
2024/03/11 07:16:04;;;;;;;61.63;22.30;;;6.80;99.90;9.60;95619.00;;;;4955798;28;20237;-71
2024/03/11 07:18:54;;;;;;;77.50;28.07;;;5.90;99.90;10.00;95627.00;;;;4949378;28;20210;-71
2024/03/11 07:21:45;;;;;;;20.20;7.30;;;6.90;99.90;9.90;95628.00;;;;4954211;28;20467;-73
2024/03/11 07:24:34;;;;;;;155.30;138.55;;;7.10;99.90;9.50;95618.00;;;;4949474;28;20418;-71
2024/03/11 07:27:23;;;;;;;95.77;41.90;;;7.10;99.90;9.70;95623.00;;;;4948547;28;20340;-71
2024/03/11 07:30:18;;;;;;;17.30;6.13;;;7.20;99.90;9.70;95622.00;;;;4970729;28;20237;-71
2024/03/11 07:33:09;;;;;;;15.07;5.23;;;7.30;99.90;9.70;95622.00;;;;4974495;28;20642;-71
2024/03/11 07:35:58;;;;;;;9.57;3.40;;;7.30;99.90;9.90;95638.00;;;;4981402;28;20822;-70
2024/03/11 07:38:47;;;;;;;15.83;5.57;;;7.60;99.90;10.50;95641.00;;;;4986690;28;20222;-70
2024/03/11 07:41:36;;;;;;;11.37;4.07;;;7.60;99.90;11.10;95642.00;;;;4986022;28;20591;-71
2024/03/11 07:44:26;;;;;;;8.40;3.33;;;7.80;99.90;11.30;95636.00;;;;4984286;28;20665;-70
2024/03/11 07:47:17;;;;;;;18.30;6.80;;;8.00;99.90;11.50;95632.00;;;;4985706;28;20198;-70
2024/03/11 07:50:09;;;;;;;11.87;4.83;;;8.20;99.90;11.90;95642.00;;;;4981242;28;20234;-69
2024/03/11 07:52:57;;;;;;;7.37;2.93;;;8.40;99.90;12.20;95640.00;;;;4983864;28;20203;-69
2024/03/11 07:55:47;;;;;;;10.43;4.40;;;8.70;99.90;12.30;95631.00;;;;4985421;28;20210;-69
2024/03/11 07:58:36;;;;;;;15.17;6.53;;;8.90;99.90;12.40;95635.00;;;;4986615;28;20202;-69
2024/03/11 08:01:26;;;;;;;13.07;6.07;;;9.10;99.90;12.60;95628.00;;;;4983347;28;20230;-68
2024/03/11 08:04:16;;;;;;;18.10;7.20;;;9.20;99.90;11.90;95629.00;;;;4986107;28;20206;-66
2024/03/11 08:07:05;;;;;;;13.87;6.27;;;9.30;99.90;11.70;95622.00;;;;4984002;28;20687;-68
2024/03/11 08:09:55;;;;;;;8.83;4.03;;;9.30;99.90;12.20;95621.00;;;;4981532;28;20726;-68
2024/03/11 08:12:47;;;;;;;10.93;4.93;;;9.30;99.90;12.60;95622.00;;;;4985301;28;20210;-67
2024/03/11 08:15:36;;;;;;;12.83;5.87;;;9.40;99.90;12.80;95626.00;;;;4985604;28;20225;-69
2024/03/11 08:18:24;;;;;;;10.20;4.83;;;9.60;99.90;12.90;95612.00;;;;4988393;28;20680;-69
2024/03/11 08:21:15;;;;;;;18.17;7.20;;;9.60;99.90;13.00;95614.00;;;;4990404;28;20203;-69
2024/03/11 08:24:06;;;;;;;10.07;4.83;;;9.70;99.90;13.20;95610.00;;;;4987752;28;20321;-68
2024/03/11 08:26:56;;;;;;;8.97;4.93;;;9.80;99.90;13.10;95610.00;;;;4990264;28;20205;-69
2024/03/11 08:29:45;;;;;;;11.50;5.60;;;9.90;99.90;13.20;95606.00;;;;4989578;28;20227;-69
2024/03/11 08:32:34;;;;;;;10.17;5.33;;;10.00;99.90;13.20;95609.00;;;;4987182;28;20202;-69
2024/03/11 08:35:24;;;;;;;34.30;13.23;;;10.00;99.90;12.80;95617.00;;;;4987754;28;20211;-67
2024/03/11 08:38:14;;;;;;;19.47;8.57;;;10.10;99.90;13.30;95606.00;;;;4990595;28;20211;-68
2024/03/11 08:41:05;;;;;;;10.53;5.17;;;10.10;99.90;13.60;95607.00;;;;4984816;28;20230;-69
2024/03/11 08:43:54;;;;;;;11.80;7.60;;;10.30;99.90;13.70;95612.00;;;;4991470;28;20261;-69
2024/03/11 08:46:43;;;;;;;16.33;9.47;;;10.30;99.90;13.80;95616.00;;;;4987101;28;20706;-68
2024/03/11 08:49:32;;;;;;;14.57;10.47;;;10.50;99.90;13.90;95612.00;;;;4987975;28;20241;-69
2024/03/11 08:52:22;;;;;;;16.77;8.67;;;10.60;99.90;14.10;95601.00;;;;4989333;28;20221;-68
2024/03/11 08:55:13;;;;;;;19.93;10.23;;;10.70;99.90;14.00;95599.00;;;;4988823;28;20210;-69
2024/03/11 08:58:05;;;;;;;13.33;8.73;;;10.80;99.90;13.90;95592.00;;;;4986595;28;20199;-69
2024/03/11 09:00:54;;;;;;;9.27;5.60;;;10.90;99.90;13.80;95594.00;;;;4990091;28;20617;-68
2024/03/11 09:03:43;;;;;;;12.83;6.80;;;10.10;99.90;14.10;95589.00;;;;4990258;28;20207;-69
2024/03/11 09:06:32;;;;;;;12.70;7.70;;;11.00;99.90;14.10;95587.00;;;;4988007;28;20199;-69
2024/03/11 09:09:24;;;;;;;9.97;6.23;;;11.10;99.90;14.60;95588.00;;;;4988481;28;20368;-68
2024/03/11 09:12:16;;;;;;;21.37;11.47;;;11.30;99.90;15.00;95594.00;;;;4987853;28;20214;-69
2024/03/11 09:15:12;;;;;;;10.60;6.10;;;11.40;99.90;14.90;95598.00;;;;4987687;28;20761;-69
2024/03/11 09:18:01;;;;;;;9.60;5.20;;;11.60;99.90;14.60;95593.00;;;;4986693;28;20211;-68
2024/03/11 09:20:50;;;;;;;13.30;7.20;;;11.70;99.90;15.00;95602.00;;;;4988793;28;20222;-68
2024/03/11 09:23:39;;;;;;;16.53;8.07;;;11.80;99.90;15.00;95589.00;;;;4987156;28;20222;-69
2024/03/11 09:26:29;;;;;;;11.27;6.47;;;11.80;99.90;14.90;95588.00;;;;4986962;28;20210;-68
2024/03/11 09:29:19;;;;;;;18.63;8.17;;;11.80;99.90;14.60;95591.00;;;;4987383;28;20238;-68
2024/03/11 09:32:08;;;;;;;23.27;10.00;;;11.80;99.90;15.20;95594.00;;;;4983643;28;20238;-68
2024/03/11 09:34:58;;;;;;;8.50;5.37;;;11.90;99.90;15.50;95595.00;;;;4987311;28;20209;-68
2024/03/11 09:37:47;;;;;;;10.77;6.73;;;12.00;99.90;15.40;95598.00;;;;4989987;28;20234;-68
2024/03/11 09:40:37;;;;;;;23.97;9.47;;;12.10;99.90;15.60;95591.00;;;;4985548;28;20646;-67
2024/03/11 09:43:27;;;;;;;11.23;5.53;;;12.20;99.90;15.60;95591.00;;;;4982324;28;20198;-67
2024/03/11 09:46:21;;;;;;;18.90;9.30;;;12.20;99.90;15.70;95586.00;;;;4986122;28;20203;-67
2024/03/11 09:49:10;;;;;;;19.60;10.47;;;12.30;99.90;15.90;95591.00;;;;4987037;28;20256;-67
2024/03/11 09:52:02;;;;;;;11.93;10.83;;;12.40;99.90;15.50;95580.00;;;;4985108;28;20226;-69
2024/03/11 09:54:51;;;;;;;15.17;11.43;;;12.50;99.90;15.50;95576.00;;;;4989119;28;20209;-68
2024/03/11 09:57:41;;;;;;;12.87;9.50;;;12.50;99.90;15.50;95577.00;;;;4988039;28;20214;-67
2024/03/11 10:00:32;;;;;;;20.20;10.73;;;12.50;99.90;15.40;95567.00;;;;4988481;28;20817;-67
2024/03/11 10:03:26;;;;;;;17.60;12.43;;;12.50;99.90;15.90;95566.00;;;;4989390;28;20214;-68
2024/03/11 10:06:16;;;;;;;11.90;7.93;;;12.60;99.90;15.90;95566.00;;;;4983976;28;20219;-67
2024/03/11 10:09:07;;;;;;;11.60;6.53;;;12.60;99.90;15.70;95556.00;;;;4985576;28;20233;-68
2024/03/11 10:12:03;;;;;;;11.23;8.17;;;12.60;99.90;15.70;95547.00;;;;4984653;28;20594;-68
2024/03/11 10:14:52;;;;;;;13.30;10.90;;;12.70;99.90;16.00;95538.00;;;;4989439;28;20590;-67
2024/03/11 10:17:43;;;;;;;12.93;9.97;;;12.70;99.90;16.20;95548.00;;;;4987779;28;20217;-68
2024/03/11 10:20:34;;;;;;;28.33;14.63;;;12.80;99.90;16.40;95538.00;;;;4986924;28;20851;-68
2024/03/11 10:23:25;;;;;;;20.50;13.63;;;12.90;99.90;16.40;95551.00;;;;4986827;28;20325;-68
2024/03/11 10:26:18;;;;;;;19.77;16.97;;;13.00;99.90;16.30;95548.00;;;;4988546;28;20213;-68
2024/03/11 10:29:07;;;;;;;15.73;14.20;;;13.00;99.90;16.30;95546.00;;;;4985916;28;20862;-68
2024/03/11 10:31:56;;;;;;;13.90;12.50;;;13.10;99.90;16.20;95551.00;;;;4984883;28;20242;-68
2024/03/11 10:34:56;;;;;;;16.20;14.20;;;13.10;99.90;16.30;95549.00;;;;4989713;28;20211;-67
2024/03/11 10:37:47;;;;;;;12.10;11.00;;;13.10;99.90;16.30;95547.00;;;;4988196;28;20214;-68
2024/03/11 10:40:38;;;;;;;28.67;18.37;;;13.10;99.90;16.20;95556.00;;;;4987635;28;20599;-67
2024/03/11 10:43:28;;;;;;;15.40;13.97;;;13.10;99.90;16.10;95548.00;;;;4985607;28;20221;-67
2024/03/11 10:46:22;;;;;;;17.83;14.83;;;13.10;99.90;16.00;95547.00;;;;4987967;28;20209;-68
2024/03/11 10:49:13;;;;;;;19.93;15.40;;;13.00;99.90;15.80;95553.00;;;;4985810;28;20248;-67
2024/03/11 10:52:08;;;;;;;16.13;14.63;;;12.90;99.90;15.70;95550.00;;;;4984983;28;20218;-68
2024/03/11 10:55:02;;;;;;;9.80;9.03;;;12.90;99.90;15.80;95552.00;;;;4988146;28;20214;-68
2024/03/11 10:57:56;;;;;;;15.90;13.00;;;12.80;99.90;15.70;95552.00;;;;4988176;28;20568;-68
2024/03/11 11:00:45;;;;;;;17.77;12.97;;;12.70;99.90;15.20;95551.00;;;;4987229;28;20926;-67
2024/03/11 11:03:35;;;;;;;15.23;12.30;;;12.60;99.90;15.00;95566.00;;;;4988990;28;20213;-68
2024/03/11 11:06:27;;;;;;;22.37;13.47;;;12.50;99.90;15.00;95565.00;;;;4987830;28;20704;-68
2024/03/11 11:09:19;;;;;;;20.03;11.17;;;12.30;99.90;14.80;95554.00;;;;4980793;28;20625;-67
2024/03/11 11:12:10;;;;;;;12.53;7.07;;;12.20;99.90;14.90;95555.00;;;;4982913;28;20233;-68
2024/03/11 11:15:01;;;;;;;8.07;5.70;;;12.10;99.90;14.90;95549.00;;;;4988455;28;20620;-67
2024/03/11 11:17:54;;;;;;;11.93;7.00;;;12.10;99.90;14.90;95551.00;;;;4986444;28;20206;-68
2024/03/11 11:20:47;;;;;;;19.60;8.53;;;12.00;99.90;14.50;95556.00;;;;4984594;28;20898;-67
2024/03/11 11:23:36;;;;;;;13.00;7.40;;;11.90;99.90;14.80;95554.00;;;;4986219;28;20204;-67
2024/03/11 11:26:43;;;;;;;16.20;9.00;;;11.90;99.90;14.20;95567.00;;;;4986036;28;20210;-68
2024/03/11 11:29:35;;;;;;;10.47;7.07;;;11.80;99.90;14.40;95557.00;;;;4984798;28;20226;-68
2024/03/11 11:32:32;;;;;;;16.60;8.63;;;11.70;99.90;13.60;95559.00;;;;4983364;28;20235;-69
2024/03/11 11:35:34;;;;;;;41.20;16.47;;;11.60;99.90;13.20;95553.00;;;;4983839;28;20207;-67
2024/03/11 11:38:29;;;;;;;18.80;7.80;;;11.30;99.90;13.40;95553.00;;;;4983863;28;20225;-68
2024/03/11 11:41:36;;;;;;;17.70;8.03;;;11.20;99.90;13.90;95572.00;;;;4982189;28;20203;-68
2024/03/11 11:44:49;;;;;;;19.77;8.47;;;11.10;99.90;13.90;95580.00;;;;4986112;28;20595;-68
2024/03/11 11:47:39;;;;;;;9.53;4.63;;;11.10;99.90;13.80;95579.00;;;;4985652;28;20199;-68
2024/03/11 11:50:34;;;;;;;20.87;9.07;;;11.10;99.90;13.80;95589.00;;;;4985572;28;20257;-68
2024/03/11 11:53:30;;;;;;;21.50;9.33;;;11.00;99.90;13.40;95574.00;;;;4985274;28;20213;-67
2024/03/11 11:56:23;;;;;;;17.83;8.13;;;11.00;99.90;13.50;95588.00;;;;4983889;28;20229;-69
2024/03/11 11:59:12;;;;;;;18.20;7.43;;;10.90;99.90;13.10;95590.00;;;;4981767;28;20222;-67
2024/03/11 12:02:02;;;;;;;11.07;5.37;;;10.80;99.90;12.20;95579.00;;;;4985082;28;20199;-68
2024/03/11 12:04:54;;;;;;;11.50;4.80;;;10.60;99.90;12.10;95590.00;;;;4986112;28;20205;-68
2024/03/11 12:07:43;;;;;;;12.77;5.20;;;10.30;99.90;12.50;95589.00;;;;4984200;28;20226;-68
2024/03/11 12:10:33;;;;;;;21.33;8.13;;;10.10;99.90;12.50;95578.00;;;;4981362;28;20250;-68
2024/03/11 12:13:22;;;;;;;20.80;8.17;;;10.10;99.90;12.10;95576.00;;;;4981243;28;20230;-67
2024/03/11 12:16:13;;;;;;;15.33;6.37;;;10.00;99.90;12.60;95573.00;;;;4985806;28;20210;-69
2024/03/11 12:19:06;;;;;;;9.27;4.07;;;9.80;99.90;12.70;95578.00;;;;4985191;28;20202;-69
2024/03/11 12:21:58;;;;;;;11.37;4.87;;;9.90;99.90;12.70;95569.00;;;;4985849;28;20199;-68
2024/03/11 12:24:47;;;;;;;10.37;4.57;;;9.90;99.90;12.70;95569.00;;;;4989844;28;20214;-67
2024/03/11 12:27:39;;;;;;;10.70;4.93;;;9.90;99.90;12.60;95566.00;;;;4987542;28;20210;-68
2024/03/11 12:30:35;;;;;;;26.30;9.63;;;9.80;99.90;12.70;95563.00;;;;4984092;28;20226;-67
2024/03/11 12:33:27;;;;;;;18.37;7.03;;;9.80;99.90;12.70;95565.00;;;;4986155;28;20219;-68
2024/03/11 12:36:19;;;;;;;16.20;6.27;;;9.80;99.90;12.60;95568.00;;;;4983987;28;20650;-68